sensor_id;sensor_type;location;lat;lon;timestamp;pressure;altitude;pressure_sealevel;temperature;humidity
59951;BME280;45812;53.540;9.774;2024-02-26T00:01:00;100350.84;;;4.25;100.00
59951;BME280;45812;53.540;9.774;2024-02-26T00:03:25;100350.84;;;4.25;100.00
59951;BME280;45812;53.540;9.774;2024-02-26T00:05:50;100345.59;;;4.25;100.00
59951;BME280;45812;53.540;9.774;2024-02-26T00:08:16;100356.13;;;4.25;100.00
59951;BME280;45812;53.540;9.774;2024-02-26T00:10:41;100352.66;;;4.25;100.00
59951;BME280;45812;53.540;9.774;2024-02-26T00:13:07;100351.81;;;4.24;100.00
59951;BME280;45812;53.540;9.774;2024-02-26T00:15:33;100365.13;;;4.23;100.00
59951;BME280;45812;53.540;9.774;2024-02-26T00:18:00;100351.28;;;4.21;100.00
59951;BME280;45812;53.540;9.774;2024-02-26T00:20:25;100354.72;;;4.21;100.00
59951;BME280;45812;53.540;9.774;2024-02-26T00:22:51;100354.88;;;4.20;100.00
59951;BME280;45812;53.540;9.774;2024-02-26T00:25:16;100363.75;;;4.19;100.00
59951;BME280;45812;53.540;9.774;2024-02-26T00:27:41;100349.03;;;4.16;100.00
59951;BME280;45812;53.540;9.774;2024-02-26T00:30:09;100351.94;;;4.13;100.00
59951;BME280;45812;53.540;9.774;2024-02-26T00:32:34;100347.78;;;4.11;100.00
59951;BME280;45812;53.540;9.774;2024-02-26T00:34:59;100351.47;;;4.08;100.00
59951;BME280;45812;53.540;9.774;2024-02-26T00:37:25;100348.97;;;4.07;100.00
59951;BME280;45812;53.540;9.774;2024-02-26T00:39:50;100349.13;;;4.05;100.00
59951;BME280;45812;53.540;9.774;2024-02-26T00:42:15;100350.09;;;4.04;100.00
59951;BME280;45812;53.540;9.774;2024-02-26T00:44:40;100347.72;;;4.01;100.00
59951;BME280;45812;53.540;9.774;2024-02-26T00:47:05;100347.03;;;3.99;100.00
59951;BME280;45812;53.540;9.774;2024-02-26T00:49:31;100354.22;;;3.97;100.00
59951;BME280;45812;53.540;9.774;2024-02-26T00:51:56;100356.84;;;3.97;100.00
59951;BME280;45812;53.540;9.774;2024-02-26T00:54:21;100347.28;;;3.96;100.00
59951;BME280;45812;53.540;9.774;2024-02-26T00:56:46;100355.19;;;3.96;100.00
59951;BME280;45812;53.540;9.774;2024-02-26T00:59:12;100350.88;;;3.95;100.00
59951;BME280;45812;53.540;9.774;2024-02-26T01:01:37;100350.19;;;3.93;100.00
59951;BME280;45812;53.540;9.774;2024-02-26T01:04:02;100354.50;;;3.94;100.00
59951;BME280;45812;53.540;9.774;2024-02-26T01:06:28;100353.78;;;3.92;100.00
59951;BME280;45812;53.540;9.774;2024-02-26T01:08:53;100352.34;;;3.88;100.00
59951;BME280;45812;53.540;9.774;2024-02-26T01:11:19;100358.84;;;3.84;100.00
59951;BME280;45812;53.540;9.774;2024-02-26T01:13:44;100357.47;;;3.80;100.00
59951;BME280;45812;53.540;9.774;2024-02-26T01:16:09;100357.97;;;3.74;100.00
59951;BME280;45812;53.540;9.774;2024-02-26T01:18:35;100352.94;;;3.71;100.00
59951;BME280;45812;53.540;9.774;2024-02-26T01:21:01;100352.38;;;3.67;100.00
59951;BME280;45812;53.540;9.774;2024-02-26T01:23:26;100364.00;;;3.64;100.00
59951;BME280;45812;53.540;9.774;2024-02-26T01:25:51;100360.69;;;3.62;100.00
59951;BME280;45812;53.540;9.774;2024-02-26T01:28:17;100364.41;;;3.60;100.00
59951;BME280;45812;53.540;9.774;2024-02-26T01:30:42;100369.94;;;3.57;100.00
59951;BME280;45812;53.540;9.774;2024-02-26T01:33:07;100361.47;;;3.53;100.00
59951;BME280;45812;53.540;9.774;2024-02-26T01:35:32;100368.03;;;3.48;100.00
59951;BME280;45812;53.540;9.774;2024-02-26T01:37:58;100358.75;;;3.44;100.00
59951;BME280;45812;53.540;9.774;2024-02-26T01:40:26;100365.22;;;3.40;100.00
59951;BME280;45812;53.540;9.774;2024-02-26T01:42:52;100366.31;;;3.37;100.00
59951;BME280;45812;53.540;9.774;2024-02-26T01:45:18;100365.72;;;3.33;100.00
59951;BME280;45812;53.540;9.774;2024-02-26T01:47:52;100365.16;;;3.30;100.00
59951;BME280;45812;53.540;9.774;2024-02-26T01:50:18;100365.53;;;3.25;100.00
59951;BME280;45812;53.540;9.774;2024-02-26T01:52:45;100368.56;;;3.21;100.00
59951;BME280;45812;53.540;9.774;2024-02-26T01:55:12;100361.88;;;3.17;100.00
59951;BME280;45812;53.540;9.774;2024-02-26T01:57:39;100356.13;;;3.12;100.00
59951;BME280;45812;53.540;9.774;2024-02-26T02:00:05;100366.66;;;3.12;100.00
59951;BME280;45812;53.540;9.774;2024-02-26T02:02:32;100369.28;;;3.12;100.00
59951;BME280;45812;53.540;9.774;2024-02-26T02:04:58;100370.00;;;3.14;100.00
59951;BME280;45812;53.540;9.774;2024-02-26T02:07:24;100369.03;;;3.15;100.00
59951;BME280;45812;53.540;9.774;2024-02-26T02:09:50;100366.41;;;3.15;100.00
59951;BME280;45812;53.540;9.774;2024-02-26T02:12:15;100371.66;;;3.15;100.00
59951;BME280;45812;53.540;9.774;2024-02-26T02:14:40;100363.78;;;3.15;100.00
59951;BME280;45812;53.540;9.774;2024-02-26T02:17:06;100361.13;;;3.15;100.00
59951;BME280;45812;53.540;9.774;2024-02-26T02:19:32;100365.81;;;3.11;100.00
59951;BME280;45812;53.540;9.774;2024-02-26T02:21:57;100358.06;;;3.10;100.00
59951;BME280;45812;53.540;9.774;2024-02-26T02:24:22;100365.94;;;3.10;100.00
59951;BME280;45812;53.540;9.774;2024-02-26T02:26:47;100364.88;;;3.12;100.00
59951;BME280;45812;53.540;9.774;2024-02-26T02:29:14;100366.41;;;3.15;100.00
59951;BME280;45812;53.540;9.774;2024-02-26T02:31:40;100366.03;;;3.19;100.00
59951;BME280;45812;53.540;9.774;2024-02-26T02:34:05;100371.75;;;3.24;100.00
59951;BME280;45812;53.540;9.774;2024-02-26T02:36:30;100373.44;;;3.25;100.00
59951;BME280;45812;53.540;9.774;2024-02-26T02:38:56;100371.06;;;3.22;100.00
59951;BME280;45812;53.540;9.774;2024-02-26T02:41:21;100369.38;;;3.21;100.00
59951;BME280;45812;53.540;9.774;2024-02-26T02:43:46;100373.81;;;3.21;100.00
59951;BME280;45812;53.540;9.774;2024-02-26T02:46:12;100373.44;;;3.25;100.00
59951;BME280;45812;53.540;9.774;2024-02-26T02:48:37;100376.50;;;3.30;100.00
59951;BME280;45812;53.540;9.774;2024-02-26T02:51:04;100379.72;;;3.34;100.00
59951;BME280;45812;53.540;9.774;2024-02-26T02:53:29;100374.94;;;3.39;100.00
59951;BME280;45812;53.540;9.774;2024-02-26T02:55:55;100380.88;;;3.41;100.00
59951;BME280;45812;53.540;9.774;2024-02-26T02:58:20;100386.84;;;3.43;100.00
59951;BME280;45812;53.540;9.774;2024-02-26T03:00:45;100375.50;;;3.43;100.00
59951;BME280;45812;53.540;9.774;2024-02-26T03:03:10;100382.69;;;3.41;100.00
59951;BME280;45812;53.540;9.774;2024-02-26T03:05:36;100379.22;;;3.40;100.00
59951;BME280;45812;53.540;9.774;2024-02-26T03:08:01;100380.88;;;3.41;100.00
59951;BME280;45812;53.540;9.774;2024-02-26T03:10:26;100385.44;;;3.39;100.00
59951;BME280;45812;53.540;9.774;2024-02-26T03:12:51;100384.75;;;3.37;100.00
59951;BME280;45812;53.540;9.774;2024-02-26T03:15:17;100383.78;;;3.38;100.00
59951;BME280;45812;53.540;9.774;2024-02-26T03:17:42;100385.72;;;3.36;100.00
59951;BME280;45812;53.540;9.774;2024-02-26T03:20:08;100393.59;;;3.36;100.00
59951;BME280;45812;53.540;9.774;2024-02-26T03:22:34;100394.31;;;3.38;100.00
59951;BME280;45812;53.540;9.774;2024-02-26T03:25:00;100404.00;;;3.38;100.00
59951;BME280;45812;53.540;9.774;2024-02-26T03:27:25;100398.97;;;3.34;100.00
59951;BME280;45812;53.540;9.774;2024-02-26T03:29:50;100390.50;;;3.31;100.00
59951;BME280;45812;53.540;9.774;2024-02-26T03:32:16;100393.13;;;3.31;100.00
59951;BME280;45812;53.540;9.774;2024-02-26T03:34:41;100388.69;;;3.31;100.00
59951;BME280;45812;53.540;9.774;2024-02-26T03:37:06;100403.63;;;3.31;100.00
59951;BME280;45812;53.540;9.774;2024-02-26T03:39:34;100398.38;;;3.31;100.00
59951;BME280;45812;53.540;9.774;2024-02-26T03:41:59;100409.03;;;3.29;100.00
59951;BME280;45812;53.540;9.774;2024-02-26T03:44:24;100414.28;;;3.29;100.00
59951;BME280;45812;53.540;9.774;2024-02-26T03:46:50;100416.09;;;3.29;100.00
59951;BME280;45812;53.540;9.774;2024-02-26T03:49:15;100417.75;;;3.30;100.00
59951;BME280;45812;53.540;9.774;2024-02-26T03:51:40;100423.72;;;3.32;100.00
59951;BME280;45812;53.540;9.774;2024-02-26T03:54:05;100422.06;;;3.31;100.00
59951;BME280;45812;53.540;9.774;2024-02-26T03:56:31;100425.78;;;3.28;100.00
59951;BME280;45812;53.540;9.774;2024-02-26T03:58:56;100428.91;;;3.22;100.00
59951;BME280;45812;53.540;9.774;2024-02-26T04:01:21;100427.72;;;3.15;100.00
59951;BME280;45812;53.540;9.774;2024-02-26T04:03:47;100435.28;;;3.09;100.00
59951;BME280;45812;53.540;9.774;2024-02-26T04:06:12;100439.13;;;3.04;100.00
59951;BME280;45812;53.540;9.774;2024-02-26T04:08:43;100440.34;;;3.00;100.00
59951;BME280;45812;53.540;9.774;2024-02-26T04:11:08;100445.09;;;2.95;100.00
59951;BME280;45812;53.540;9.774;2024-02-26T04:13:33;100449.91;;;2.90;100.00
59951;BME280;45812;53.540;9.774;2024-02-26T04:15:59;100449.44;;;2.85;100.00
59951;BME280;45812;53.540;9.774;2024-02-26T04:18:26;100453.28;;;2.81;100.00
59951;BME280;45812;53.540;9.774;2024-02-26T04:20:52;100464.00;;;2.78;100.00
59951;BME280;45812;53.540;9.774;2024-02-26T04:23:17;100469.50;;;2.75;100.00
59951;BME280;45812;53.540;9.774;2024-02-26T04:25:42;100473.34;;;2.71;100.00
59951;BME280;45812;53.540;9.774;2024-02-26T04:28:08;100491.25;;;2.66;100.00
59951;BME280;45812;53.540;9.774;2024-02-26T04:30:33;100487.44;;;2.59;100.00
59951;BME280;45812;53.540;9.774;2024-02-26T04:32:58;100485.28;;;2.53;100.00
59951;BME280;45812;53.540;9.774;2024-02-26T04:35:23;100489.34;;;2.46;100.00
59951;BME280;45812;53.540;9.774;2024-02-26T04:37:49;100491.47;;;2.40;100.00
59951;BME280;45812;53.540;9.774;2024-02-26T04:40:14;100499.72;;;2.36;100.00
59951;BME280;45812;53.540;9.774;2024-02-26T04:42:40;100501.88;;;2.31;100.00
59951;BME280;45812;53.540;9.774;2024-02-26T04:45:05;100500.56;;;2.25;100.00
59951;BME280;45812;53.540;9.774;2024-02-26T04:47:32;100500.75;;;2.22;100.00
59951;BME280;45812;53.540;9.774;2024-02-26T04:49:57;100506.38;;;2.18;100.00
59951;BME280;45812;53.540;9.774;2024-02-26T04:52:22;100504.22;;;2.11;100.00
59951;BME280;45812;53.540;9.774;2024-02-26T04:54:47;100506.47;;;2.05;100.00
59951;BME280;45812;53.540;9.774;2024-02-26T04:57:13;100503.94;;;2.03;100.00
59951;BME280;45812;53.540;9.774;2024-02-26T04:59:38;100513.59;;;2.03;100.00
59951;BME280;45812;53.540;9.774;2024-02-26T05:02:03;100513.59;;;2.03;100.00
59951;BME280;45812;53.540;9.774;2024-02-26T05:04:29;100524.09;;;2.03;100.00
59951;BME280;45812;53.540;9.774;2024-02-26T05:06:54;100520.63;;;2.02;100.00
59951;BME280;45812;53.540;9.774;2024-02-26T05:09:20;100524.22;;;2.01;100.00
59951;BME280;45812;53.540;9.774;2024-02-26T05:11:45;100529.59;;;2.00;100.00
59951;BME280;45812;53.540;9.774;2024-02-26T05:14:10;100527.91;;;1.99;100.00
59951;BME280;45812;53.540;9.774;2024-02-26T05:16:36;100530.53;;;1.99;100.00
59951;BME280;45812;53.540;9.774;2024-02-26T05:19:01;100536.75;;;1.98;100.00
59951;BME280;45812;53.540;9.774;2024-02-26T05:21:26;100534.00;;;1.99;100.00
59951;BME280;45812;53.540;9.774;2024-02-26T05:23:51;100530.53;;;1.99;100.00
59951;BME280;45812;53.540;9.774;2024-02-26T05:26:21;100532.31;;;1.98;100.00
59951;BME280;45812;53.540;9.774;2024-02-26T05:28:47;100535.06;;;1.97;100.00
59951;BME280;45812;53.540;9.774;2024-02-26T05:31:13;100541.16;;;1.97;100.00
59951;BME280;45812;53.540;9.774;2024-02-26T05:33:38;100539.38;;;1.98;100.00
59951;BME280;45812;53.540;9.774;2024-02-26T05:36:04;100544.38;;;2.01;100.00
59951;BME280;45812;53.540;9.774;2024-02-26T05:38:30;100552.03;;;2.04;100.00
59951;BME280;45812;53.540;9.774;2024-02-26T05:40:57;100546.56;;;2.07;100.00
59951;BME280;45812;53.540;9.774;2024-02-26T05:43:22;100547.66;;;2.16;100.00
59951;BME280;45812;53.540;9.774;2024-02-26T05:45:47;100540.78;;;2.26;100.00
59951;BME280;45812;53.540;9.774;2024-02-26T05:48:12;100552.47;;;2.33;100.00
59951;BME280;45812;53.540;9.774;2024-02-26T05:50:38;100556.31;;;2.40;100.00
59951;BME280;45812;53.540;9.774;2024-02-26T05:53:03;100559.31;;;2.47;100.00
59951;BME280;45812;53.540;9.774;2024-02-26T05:55:28;100551.69;;;2.55;100.00
59951;BME280;45812;53.540;9.774;2024-02-26T05:57:54;100552.91;;;2.62;100.00
59951;BME280;45812;53.540;9.774;2024-02-26T06:00:19;100556.59;;;2.70;100.00
59951;BME280;45812;53.540;9.774;2024-02-26T06:02:44;100560.31;;;2.79;100.00
59951;BME280;45812;53.540;9.774;2024-02-26T06:05:10;100559.84;;;2.85;100.00
59951;BME280;45812;53.540;9.774;2024-02-26T06:07:35;100561.75;;;2.94;100.00
59951;BME280;45812;53.540;9.774;2024-02-26T06:10:01;100570.00;;;3.01;100.00
59951;BME280;45812;53.540;9.774;2024-02-26T06:12:27;100561.63;;;3.07;100.00
59951;BME280;45812;53.540;9.774;2024-02-26T06:14:53;100572.63;;;3.12;100.00
59951;BME280;45812;53.540;9.774;2024-02-26T06:17:18;100569.66;;;3.17;100.00
59951;BME280;45812;53.540;9.774;2024-02-26T06:19:44;100582.31;;;3.23;100.00
59951;BME280;45812;53.540;9.774;2024-02-26T06:22:09;100582.75;;;3.28;100.00
59951;BME280;45812;53.540;9.774;2024-02-26T06:24:34;100590.28;;;3.32;100.00
59951;BME280;45812;53.540;9.774;2024-02-26T06:26:59;100591.00;;;3.34;100.00
59951;BME280;45812;53.540;9.774;2024-02-26T06:29:25;100594.25;;;3.38;100.00
59951;BME280;45812;53.540;9.774;2024-02-26T06:31:50;100588.72;;;3.41;100.00
59951;BME280;45812;53.540;9.774;2024-02-26T06:34:15;100588.63;;;3.43;100.00
59951;BME280;45812;53.540;9.774;2024-02-26T06:36:41;100589.91;;;3.48;100.00
59951;BME280;45812;53.540;9.774;2024-02-26T06:39:06;100593.25;;;3.50;100.00
59951;BME280;45812;53.540;9.774;2024-02-26T06:41:31;100592.06;;;3.54;100.00
59951;BME280;45812;53.540;9.774;2024-02-26T06:43:56;100593.50;;;3.58;100.00
59951;BME280;45812;53.540;9.774;2024-02-26T06:46:22;100589.53;;;3.64;100.00
59951;BME280;45812;53.540;9.774;2024-02-26T06:48:48;100597.28;;;3.65;100.00
59951;BME280;45812;53.540;9.774;2024-02-26T06:51:14;100594.28;;;3.70;100.00
59951;BME280;45812;53.540;9.774;2024-02-26T06:53:39;100612.38;;;3.75;100.00
59951;BME280;45812;53.540;9.774;2024-02-26T06:56:04;100611.16;;;3.79;100.00
59951;BME280;45812;53.540;9.774;2024-02-26T06:58:30;100616.03;;;3.83;100.00
59951;BME280;45812;53.540;9.774;2024-02-26T07:00:55;100614.81;;;3.87;100.00
59951;BME280;45812;53.540;9.774;2024-02-26T07:03:20;100611.97;;;3.90;100.00
59951;BME280;45812;53.540;9.774;2024-02-26T07:05:47;100615.06;;;3.95;100.00
59951;BME280;45812;53.540;9.774;2024-02-26T07:08:13;100614.66;;;4.00;100.00
59951;BME280;45812;53.540;9.774;2024-02-26T07:10:38;100626.50;;;4.06;100.00
59951;BME280;45812;53.540;9.774;2024-02-26T07:13:03;100621.84;;;4.09;100.00
59951;BME280;45812;53.540;9.774;2024-02-26T07:15:29;100628.50;;;4.13;100.00
59951;BME280;45812;53.540;9.774;2024-02-26T07:17:54;100635.06;;;4.19;100.00
59951;BME280;45812;53.540;9.774;2024-02-26T07:20:19;100634.69;;;4.23;100.00
59951;BME280;45812;53.540;9.774;2024-02-26T07:22:44;100638.63;;;4.29;100.00
59951;BME280;45812;53.540;9.774;2024-02-26T07:25:10;100639.22;;;4.33;100.00
59951;BME280;45812;53.540;9.774;2024-02-26T07:27:38;100634.25;;;4.39;100.00
59951;BME280;45812;53.540;9.774;2024-02-26T07:30:04;100638.19;;;4.45;100.00
59951;BME280;45812;53.540;9.774;2024-02-26T07:32:30;100634.94;;;4.52;100.00
59951;BME280;45812;53.540;9.774;2024-02-26T07:34:55;100651.88;;;4.60;100.00
59951;BME280;45812;53.540;9.774;2024-02-26T07:37:20;100648.75;;;4.66;100.00
59951;BME280;45812;53.540;9.774;2024-02-26T07:39:45;100661.28;;;4.73;100.00
59951;BME280;45812;53.540;9.774;2024-02-26T07:42:11;100660.75;;;4.79;100.00
59951;BME280;45812;53.540;9.774;2024-02-26T07:44:36;100665.53;;;4.85;100.00
59951;BME280;45812;53.540;9.774;2024-02-26T07:47:01;100679.03;;;4.92;100.00
59951;BME280;45812;53.540;9.774;2024-02-26T07:49:28;100668.78;;;4.99;100.00
59951;BME280;45812;53.540;9.774;2024-02-26T07:51:53;100675.38;;;5.04;100.00
59951;BME280;45812;53.540;9.774;2024-02-26T07:54:18;100677.47;;;5.10;100.00
59951;BME280;45812;53.540;9.774;2024-02-26T07:56:44;100682.09;;;5.18;100.00
59951;BME280;45812;53.540;9.774;2024-02-26T07:59:09;100679.78;;;5.25;100.00
59951;BME280;45812;53.540;9.774;2024-02-26T08:01:34;100688.13;;;5.30;100.00
59951;BME280;45812;53.540;9.774;2024-02-26T08:04:00;100689.28;;;5.37;100.00
59951;BME280;45812;53.540;9.774;2024-02-26T08:06:25;100689.59;;;5.43;100.00
59951;BME280;45812;53.540;9.774;2024-02-26T08:08:50;100688.09;;;5.51;100.00
59951;BME280;45812;53.540;9.774;2024-02-26T08:11:16;100691.84;;;5.58;100.00
59951;BME280;45812;53.540;9.774;2024-02-26T08:13:41;100694.25;;;5.61;100.00
59951;BME280;45812;53.540;9.774;2024-02-26T08:16:07;100700.94;;;5.65;100.00
59951;BME280;45812;53.540;9.774;2024-02-26T08:18:32;100707.75;;;5.67;100.00
59951;BME280;45812;53.540;9.774;2024-02-26T08:20:57;100704.84;;;5.70;100.00
59951;BME280;45812;53.540;9.774;2024-02-26T08:23:22;100706.09;;;5.76;100.00
59951;BME280;45812;53.540;9.774;2024-02-26T08:25:48;100700.31;;;5.82;100.00
59951;BME280;45812;53.540;9.774;2024-02-26T08:28:14;100707.69;;;5.88;100.00
59951;BME280;45812;53.540;9.774;2024-02-26T08:30:39;100705.25;;;5.96;100.00
59951;BME280;45812;53.540;9.774;2024-02-26T08:33:04;100707.34;;;6.02;100.00
59951;BME280;45812;53.540;9.774;2024-02-26T08:35:29;100709.56;;;6.07;100.00
59951;BME280;45812;53.540;9.774;2024-02-26T08:37:55;100715.84;;;6.16;100.00
59951;BME280;45812;53.540;9.774;2024-02-26T08:40:20;100713.50;;;6.22;100.00
59951;BME280;45812;53.540;9.774;2024-02-26T08:42:45;100720.72;;;6.30;100.00
59951;BME280;45812;53.540;9.774;2024-02-26T08:45:11;100725.22;;;6.39;100.00
59951;BME280;45812;53.540;9.774;2024-02-26T08:47:36;100727.97;;;6.47;100.00
59951;BME280;45812;53.540;9.774;2024-02-26T08:50:02;100732.47;;;6.56;100.00
59951;BME280;45812;53.540;9.774;2024-02-26T08:52:27;100727.72;;;6.60;100.00
59951;BME280;45812;53.540;9.774;2024-02-26T08:54:52;100730.63;;;6.66;100.00
59951;BME280;45812;53.540;9.774;2024-02-26T08:57:17;100730.38;;;6.70;100.00
59951;BME280;45812;53.540;9.774;2024-02-26T08:59:43;100737.75;;;6.76;100.00
59951;BME280;45812;53.540;9.774;2024-02-26T09:02:08;100734.53;;;6.82;100.00
59951;BME280;45812;53.540;9.774;2024-02-26T09:04:34;100736.63;;;6.88;100.00
59951;BME280;45812;53.540;9.774;2024-02-26T09:07:00;100737.19;;;6.91;100.00
59951;BME280;45812;53.540;9.774;2024-02-26T09:09:25;100734.66;;;6.99;100.00
59951;BME280;45812;53.540;9.774;2024-02-26T09:11:51;100742.75;;;7.08;100.00
59951;BME280;45812;53.540;9.774;2024-02-26T09:14:17;100744.25;;;7.20;100.00
59951;BME280;45812;53.540;9.774;2024-02-26T09:16:43;100752.47;;;7.26;100.00
59951;BME280;45812;53.540;9.774;2024-02-26T09:19:08;100751.88;;;7.33;100.00
59951;BME280;45812;53.540;9.774;2024-02-26T09:21:33;100753.81;;;7.40;100.00
59951;BME280;45812;53.540;9.774;2024-02-26T09:23:58;100755.75;;;7.48;100.00
59951;BME280;45812;53.540;9.774;2024-02-26T09:26:23;100750.72;;;7.54;100.00
59951;BME280;45812;53.540;9.774;2024-02-26T09:28:49;100756.53;;;7.58;100.00
59951;BME280;45812;53.540;9.774;2024-02-26T09:31:14;100759.31;;;7.66;100.00
59951;BME280;45812;53.540;9.774;2024-02-26T09:33:41;100761.25;;;7.74;100.00
59951;BME280;45812;53.540;9.774;2024-02-26T09:36:06;100754.81;;;7.76;100.00
59951;BME280;45812;53.540;9.774;2024-02-26T09:38:31;100757.88;;;7.81;100.00
59951;BME280;45812;53.540;9.774;2024-02-26T09:41:02;100752.66;;;7.89;100.00
59951;BME280;45812;53.540;9.774;2024-02-26T09:43:34;100757.91;;;7.99;100.00
59951;BME280;45812;53.540;9.774;2024-02-26T09:45:59;100753.84;;;8.05;100.00
59951;BME280;45812;53.540;9.774;2024-02-26T09:48:25;100759.94;;;8.15;100.00
59951;BME280;45812;53.540;9.774;2024-02-26T09:50:51;100762.84;;;8.22;100.00
59951;BME280;45812;53.540;9.774;2024-02-26T09:53:16;100762.16;;;8.19;100.00
59951;BME280;45812;53.540;9.774;2024-02-26T09:55:42;100765.63;;;8.20;100.00
59951;BME280;45812;53.540;9.774;2024-02-26T09:58:07;100764.88;;;8.28;100.00
59951;BME280;45812;53.540;9.774;2024-02-26T10:00:36;100771.56;;;8.32;100.00
59951;BME280;45812;53.540;9.774;2024-02-26T10:03:06;100771.13;;;8.36;100.00
59951;BME280;45812;53.540;9.774;2024-02-26T10:05:35;100773.50;;;8.39;100.00
59951;BME280;45812;53.540;9.774;2024-02-26T10:08:01;100776.41;;;8.46;100.00
59951;BME280;45812;53.540;9.774;2024-02-26T10:10:28;100780.41;;;8.50;100.00
59951;BME280;45812;53.540;9.774;2024-02-26T10:12:54;100779.13;;;8.54;100.00
59951;BME280;45812;53.540;9.774;2024-02-26T10:15:19;100784.69;;;8.61;100.00
59951;BME280;45812;53.540;9.774;2024-02-26T10:17:45;100779.28;;;8.70;100.00
59951;BME280;45812;53.540;9.774;2024-02-26T10:20:17;100787.72;;;8.84;99.30
59951;BME280;45812;53.540;9.774;2024-02-26T10:22:44;100788.50;;;8.94;98.85
59951;BME280;45812;53.540;9.774;2024-02-26T10:25:09;100790.72;;;9.06;98.71
59951;BME280;45812;53.540;9.774;2024-02-26T10:27:35;100796.50;;;9.20;97.93
59951;BME280;45812;53.540;9.774;2024-02-26T10:30:20;100795.78;;;9.35;97.70
59951;BME280;45812;53.540;9.774;2024-02-26T10:32:47;100789.91;;;9.50;96.55
59951;BME280;45812;53.540;9.774;2024-02-26T10:35:13;100787.72;;;9.71;95.70
59951;BME280;45812;53.540;9.774;2024-02-26T10:37:40;100794.63;;;9.90;94.65
59951;BME280;45812;53.540;9.774;2024-02-26T10:40:06;100797.06;;;10.09;93.61
59951;BME280;45812;53.540;9.774;2024-02-26T10:42:34;100788.19;;;10.26;93.51
59951;BME280;45812;53.540;9.774;2024-02-26T10:44:59;100806.38;;;10.47;92.28
59951;BME280;45812;53.540;9.774;2024-02-26T10:47:26;100803.25;;;10.68;90.37
59951;BME280;45812;53.540;9.774;2024-02-26T10:49:52;100803.63;;;10.89;89.65
59951;BME280;45812;53.540;9.774;2024-02-26T10:52:19;100812.13;;;11.09;88.33
59951;BME280;45812;53.540;9.774;2024-02-26T10:54:47;100808.63;;;11.33;87.03
59951;BME280;45812;53.540;9.774;2024-02-26T10:57:13;100806.31;;;11.55;85.28
59951;BME280;45812;53.540;9.774;2024-02-26T10:59:39;100811.94;;;11.76;84.01
59951;BME280;45812;53.540;9.774;2024-02-26T11:02:07;100809.56;;;11.89;83.25
59951;BME280;45812;53.540;9.774;2024-02-26T11:04:35;100810.53;;;12.04;82.36
59951;BME280;45812;53.540;9.774;2024-02-26T11:07:00;100818.13;;;12.24;82.64
59951;BME280;45812;53.540;9.774;2024-02-26T11:09:27;100811.69;;;12.49;80.72
59951;BME280;45812;53.540;9.774;2024-02-26T11:11:53;100807.22;;;12.72;80.49
59951;BME280;45812;53.540;9.774;2024-02-26T11:14:20;100816.97;;;13.11;77.99
59951;BME280;45812;53.540;9.774;2024-02-26T11:16:47;100806.13;;;13.50;75.66
59951;BME280;45812;53.540;9.774;2024-02-26T11:19:13;100813.38;;;13.79;75.59
59951;BME280;45812;53.540;9.774;2024-02-26T11:21:39;100805.72;;;14.06;75.41
59951;BME280;45812;53.540;9.774;2024-02-26T11:24:07;100813.25;;;14.46;72.21
59951;BME280;45812;53.540;9.774;2024-02-26T11:26:37;100815.84;;;14.91;70.86
59951;BME280;45812;53.540;9.774;2024-02-26T11:29:08;100819.56;;;15.39;69.94
59951;BME280;45812;53.540;9.774;2024-02-26T11:31:37;100821.09;;;15.69;66.15
59951;BME280;45812;53.540;9.774;2024-02-26T11:34:02;100819.13;;;15.85;63.46
59951;BME280;45812;53.540;9.774;2024-02-26T11:36:28;100827.81;;;15.87;61.77
59951;BME280;45812;53.540;9.774;2024-02-26T11:38:55;100835.25;;;15.85;61.11
59951;BME280;45812;53.540;9.774;2024-02-26T11:41:20;100833.91;;;15.74;59.98
59951;BME280;45812;53.540;9.774;2024-02-26T11:46:53;100834.16;;;15.30;60.46
59951;BME280;45812;53.540;9.774;2024-02-26T11:51:54;100826.47;;;15.05;61.47
59951;BME280;45812;53.540;9.774;2024-02-26T11:54:53;100825.94;;;14.89;61.71
59951;BME280;45812;53.540;9.774;2024-02-26T11:57:28;100829.03;;;14.71;62.23
59951;BME280;45812;53.540;9.774;2024-02-26T11:59:56;100834.88;;;14.60;62.25
59951;BME280;45812;53.540;9.774;2024-02-26T12:02:41;100829.34;;;14.46;63.31
59951;BME280;45812;53.540;9.774;2024-02-26T12:05:20;100836.81;;;14.36;64.11
59951;BME280;45812;53.540;9.774;2024-02-26T12:07:50;100839.03;;;14.18;64.36
59951;BME280;45812;53.540;9.774;2024-02-26T12:10:23;100844.47;;;14.10;65.42
59951;BME280;45812;53.540;9.774;2024-02-26T12:12:58;100837.56;;;14.01;65.45
59951;BME280;45812;53.540;9.774;2024-02-26T12:15:30;100839.84;;;13.89;65.43
59951;BME280;45812;53.540;9.774;2024-02-26T12:17:56;100843.28;;;13.83;66.25
59951;BME280;45812;53.540;9.774;2024-02-26T12:20:21;100843.09;;;13.84;67.15
59951;BME280;45812;53.540;9.774;2024-02-26T12:22:47;100851.38;;;13.89;67.38
59951;BME280;45812;53.540;9.774;2024-02-26T12:25:13;100850.50;;;13.97;67.64
59951;BME280;45812;53.540;9.774;2024-02-26T12:27:39;100855.47;;;14.00;66.83
59951;BME280;45812;53.540;9.774;2024-02-26T12:30:04;100849.56;;;14.05;66.87
59951;BME280;45812;53.540;9.774;2024-02-26T12:32:32;100857.47;;;14.13;66.82
59951;BME280;45812;53.540;9.774;2024-02-26T12:34:58;100862.31;;;14.17;67.54
59951;BME280;45812;53.540;9.774;2024-02-26T12:37:25;100864.41;;;14.22;67.27
59951;BME280;45812;53.540;9.774;2024-02-26T12:39:50;100873.47;;;14.21;66.48
59951;BME280;45812;53.540;9.774;2024-02-26T12:42:16;100872.63;;;14.20;66.82
59951;BME280;45812;53.540;9.774;2024-02-26T12:44:41;100875.59;;;14.25;65.99
59951;BME280;45812;53.540;9.774;2024-02-26T12:47:06;100880.38;;;14.30;65.03
59951;BME280;45812;53.540;9.774;2024-02-26T12:49:32;100888.25;;;14.32;64.98